Aérodrome :
LOGIN :

S'inscrire | Disclaimer

   EN    FR    IT 

 










Légende :    VFR   VFR Marginal   IFR   IFR Intensif   IFR Très Intensif
Visi : 
Plafond : 
>= 8 km
>= 3000ft
5 à 8 km
1000 à 3000 ft
1500m à 5 km
500 à 1000 ft
800 à 1500m
200 à 500 ft
< 800m
< 200 ft
Symboles :   Orages  Brouillard  Fortes neiges  Fortes précipitations  Vent > 20 kt
SIGMETs :   Divers  Orages  Givrage  Turbulence  Onde Orograph.  Cendres Volcan.







- Altitude de l'aérodrome : 294 ft
- Code IATA : NAP


LIRN - Naples Capodichino

DERNIER METAR :
  • 230750Z 36006KT 330V040 9999 BKN050 18/09 Q1016 TEMPO 04015G28KT

METARs EXPIRÉS :
  • 230720Z 35008KT 9999 BKN050 18/10 Q1015 NOSIG
  • 230650Z 05009KT 360V070 9999 BKN050 17/10 Q1015 NOSIG
  • 230620Z 02010KT 9999 BKN050 17/09 Q1015 NOSIG
  • 230550Z 03014KT 9999 BKN030 16/10 Q1014 NOSIG
  • 230520Z 03015KT 9999 BKN030 16/10 Q1014 NOSIG

TAF TAF LIRN
Valide du 23 à 06h jusqu'au 24 à 06h UTC


230500Z 2306/2406 05015G25KT 9999 SCT030
BECMG 2316/2318 04012KT
Pas de NOTAMs connus pour ce terrain.
8 SIGMETs publiés pour la FIR Roma (LIRR) :
 
Annulation du SIGMET 2 
LIRR SIGMET 5 VALID 230745/230839 LIIB- LIRR ROMA FIR EXERCISE VOLCITA 2018 EXERCISE CNL SIGMET 2 230652/230839 EXERCISE EXERCISE EXERCISE=
Orages noyés dans la masse
LIRR SIGMET 5 VALID 230600/231000 LIIB
LIRR ROMA FIR EMBD TS FCST WI N3923 E01601 - N3755 E01525 - N3624 E01530 - N3626 E01859 - N3853 E01901 - N3853 E01703 - N3856 E01630 - N3923 E01601 TOP FL390 STNR NC=
Cendres volcaniques
LIRR SIGMET 4 VALID 230745/231345 LIIB
LIRR ROMA FIR EXERCISE VOLCITA 2018 EXERCISE VA ERUPTION MT CAMPI FLEGREI PSN N4050 E01408 VA CLD OBS AT 0700Z WI N3919 E01445 - N3925 E01204 - N4134 E01325 - N4132 E01418 - N4127 E01422 - N4112 E01506 - N3919 E01445 SFC/FL460 FCST AT 1300Z WI N3630 E01130 - N3730 E01130 - N3758 E01024 - N4140 E01119 - N4143 E01408 - N4127 E01422 - N4112 E01507 - N4048 E01520 - N3630 E01501 - N3630 E01130 EXERCISE EXERCISE EXERCISE=
Turbulence forte
LIRR SIGMET 4 VALID 230600/231000 LIIB
LIRR ROMA FIR SEV TURB FCST WI N3810 E00950 - N3733 E01129 - N3628 E01130 - N3629 E01423 - N3628 E01616 - N3847 E01647 - N4102 E01314 - N3810 E00950 FL270/400 STNR NC=
Annulation du SIGMET 1
LIRR SIGMET 3 VALID 230653/230839 LIIB
LIRR ROMA FIR EXERCISE VOLCITA 2018 EXERCISE CNL SIGMET 1 230639/230839 EXERCISE EXERCISE EXERCISE=
Annulation du SIGMET 1 
LIRR SIGMET 3 VALID 230652/230839 LIIB
LIRR ROMA FIR CNL SIGMET 1 230639/230839=
Cendres volcaniques
LIRR SIGMET 2 VALID 230652/230839 LIIB
LIRR ROMA FIR EXERCISE VOLCITA 2018 EXERCISE VA ERUPTION MT CAMPI FLEGREI PSN N4050 E01408 VA CLD OBS AT 0620Z FL015/460 MOV SW 45KT NC EXERCISE EXERCISE EXERCISE=
SIGMET 1  ANNULÉ :
Cendres volcaniques
LIRR SIGMET 1 VALID 230639/230839 LIIB
LIRR ROMA FIR EXERCISE VOLCITA 2018 EXERCISE VA ERUPTION MT CAMPI FLEGREI PSN N4050 W01408 VA CLD OBS AT 0620Z FL015/460 MOV SW 45KT NC EXERCISE EXERCISE EXERCISE=



MET'MAP, la Météo Aéronautique d'un coup d'oeil ! - Copyright ORBIFLY Décembre 2007 - Disclaimer

ORBIFLY MET'MAP TEAM :

Programmation & Développement : Alexandra Zaïnal
Conception & Développement : Baudouin d'Aumeries
Co-Programmation & Développement : Marc-Olivier Méhu
Soutien technique & logistique : Manuel Goepfert

Contact : metmap@orbifly.com




SOURCES & CREDITS :

   NOAA